Time;durP1;ratioP1;P1;durP2;ratioP2;P2;SDS_P1;SDS_P2;PMS_P1;PMS_P2;Temp;Humidity;BMP_temperature;BMP_pressure;BME280_temperature;BME280_humidity;BME280_pressure;Samples;Min_cycle;Max_cycle;Signal;HPM_P1;HPM_P2
2022/05/03 00:00:29;;;;;;;7.03;4.38;;;;;;;14.44;82.24;99488.13;5022881;28;20028;-83
2022/05/03 00:03:06;;;;;;;4.85;4.45;;;;;;;14.35;83.12;99488.13;5009543;28;20062;-83
2022/05/03 00:05:44;;;;;;;4.57;4.18;;;;;;;14.33;83.28;99489.28;4997839;28;20042;-83
2022/05/03 00:08:22;;;;;;;4.50;4.10;;;;;;;14.31;83.79;99489.44;4997725;28;20038;-85
2022/05/03 00:10:56;;;;;;;4.65;4.25;;;;;;;14.27;83.83;99490.78;5002013;28;20069;-84
2022/05/03 00:13:28;;;;;;;5.07;4.63;;;;;;;14.23;84.43;99486.81;4994907;28;20026;-83
2022/05/03 00:15:55;;;;;;;5.18;4.70;;;;;;;14.23;84.45;99486.81;5000373;28;20046;-84
2022/05/03 00:18:21;;;;;;;4.90;4.38;;;;;;;14.27;84.32;99481.97;4998521;28;20049;-84
2022/05/03 00:20:48;;;;;;;6.15;4.65;;;;;;;14.22;84.11;99493.09;4998062;28;20034;-83
2022/05/03 00:23:14;;;;;;;4.95;4.38;;;;;;;14.18;84.56;99483.00;5035932;28;20817;-83
2022/05/03 00:25:41;;;;;;;5.78;4.90;;;;;;;14.12;84.81;99478.34;5069943;28;20040;-84
2022/05/03 00:28:08;;;;;;;6.05;5.15;;;;;;;14.09;85.74;99482.16;5070103;28;20028;-84
2022/05/03 00:30:36;;;;;;;7.07;6.00;;;;;;;14.05;85.89;99478.19;5067243;28;20366;-83
2022/05/03 00:33:04;;;;;;;6.63;5.75;;;;;;;14.02;85.80;99478.50;5073267;28;20056;-83
2022/05/03 00:35:30;;;;;;;6.50;5.95;;;;;;;13.93;86.56;99480.34;5072659;28;20040;-83
2022/05/03 00:37:55;;;;;;;7.32;6.15;;;;;;;13.83;86.76;99484.16;5072398;28;20135;-84
2022/05/03 00:40:22;;;;;;;6.35;5.75;;;;;;;13.74;87.51;99485.13;5073212;28;20020;-84
2022/05/03 00:43:14;;;;;;;5.88;5.32;;;;;;;13.68;87.69;99485.78;5073684;28;20035;-83
2022/05/03 00:45:48;;;;;;;6.25;5.75;;;;;;;13.46;88.78;99482.78;5070473;28;20090;-83
2022/05/03 00:48:16;;;;;;;6.18;5.65;;;;;;;13.31;89.39;99481.75;5073193;28;20036;-83
2022/05/03 00:50:53;;;;;;;5.82;5.32;;;;;;;13.17;90.63;99481.56;5073784;28;20028;-83
2022/05/03 00:53:26;;;;;;;6.63;5.45;;;;;;;13.05;91.61;99483.63;5073885;28;20028;-83
2022/05/03 00:56:02;;;;;;;5.80;5.30;;;;;;;12.92;92.56;99480.59;5074611;28;20044;-83
2022/05/03 00:59:16;;;;;;;5.55;5.10;;;;;;;12.85;93.16;99482.22;5073042;28;20040;-84
2022/05/03 01:02:07;;;;;;;5.30;4.90;;;;;;;12.86;93.00;99475.94;5050728;28;20078;-83
2022/05/03 01:04:47;;;;;;;5.72;5.22;;;;;;;12.85;93.52;99479.56;5087112;28;20060;-82
2022/05/03 01:07:22;;;;;;;;;;;;;;;12.86;93.59;99468.81;5086072;28;20094;-84
2022/05/03 01:10:29;;;;;;;5.68;4.78;;;;;;;12.95;93.20;99482.94;5088502;28;19947;-83
2022/05/03 01:13:18;;;;;;;5.40;4.97;;;;;;;13.00;92.90;99485.94;5071575;28;20017;-83
2022/05/03 01:15:52;;;;;;;5.65;5.15;;;;;;;13.01;93.21;99487.59;5070484;28;20081;-84
2022/05/03 01:18:26;;;;;;;5.63;5.13;;;;;;;12.97;93.66;99480.94;5072924;28;20028;-85
2022/05/03 01:21:02;;;;;;;9.40;5.70;;;;;;;12.87;94.07;99485.53;5072660;28;20062;-83
2022/05/03 01:23:54;;;;;;;6.03;5.50;;;;;;;12.88;94.58;99481.91;5087230;28;20111;-82
2022/05/03 01:26:28;;;;;;;6.03;5.43;;;;;;;12.80;94.60;99479.22;5090757;28;20044;-83
2022/05/03 01:29:12;;;;;;;7.00;6.20;;;;;;;12.49;96.16;99482.38;5092611;28;20117;-82
2022/05/03 01:31:39;;;;;;;6.30;5.80;;;;;;;12.30;97.54;99487.88;5089533;28;20036;-83
2022/05/03 01:34:06;;;;;;;7.97;5.72;;;;;;;12.22;98.04;99482.53;5092729;28;20053;-83
2022/05/03 01:36:57;;;;;;;6.15;5.57;;;;;;;12.24;98.49;99483.22;5092631;28;20036;-82
2022/05/03 01:39:41;;;;;;;6.40;5.72;;;;;;;12.28;98.09;99484.56;5090841;28;20028;-83
2022/05/03 01:42:21;;;;;;;5.85;4.88;;;;;;;12.31;97.78;99485.06;5083848;28;20425;-83
2022/05/03 01:45:07;;;;;;;6.00;5.50;;;;;;;12.31;98.08;99481.63;5090221;28;20043;-82
2022/05/03 01:47:48;;;;;;;6.65;5.60;;;;;;;12.34;98.20;99473.34;5070104;28;20431;-83
2022/05/03 01:50:19;;;;;;;;;;;;;;;12.36;98.20;99471.41;5089996;28;20028;-83
2022/05/03 01:53:07;;;;;;;6.80;6.10;;;;;;;12.39;98.10;99471.06;5092413;28;20294;-83
2022/05/03 01:55:46;;;;;;;6.55;5.68;;;;;;;12.40;97.87;99472.72;5087756;28;20056;-83
2022/05/03 01:58:39;;;;;;;6.22;5.63;;;;;;;12.41;98.33;99479.69;5088943;28;20032;-83
2022/05/03 02:01:29;;;;;;;7.93;6.60;;;;;;;12.42;98.49;99478.72;5091434;28;20499;-83
2022/05/03 02:04:24;;;;;;;8.48;6.93;;;;;;;12.38;98.17;99474.69;5057543;28;20055;-83
2022/05/03 02:07:07;;;;;;;6.65;6.13;;;;;;;12.40;98.55;99480.66;5097215;28;20465;-83
2022/05/03 02:09:45;;;;;;;7.07;6.25;;;;;;;12.40;98.50;99483.31;5093033;28;20508;-82
2022/05/03 02:12:15;;;;;;;6.78;6.28;;;;;;;12.42;98.15;99486.66;5096937;28;20052;-84
2022/05/03 02:14:55;;;;;;;6.85;6.15;;;;;;;12.44;98.33;99479.38;5099230;28;20104;-84
2022/05/03 02:17:52;;;;;;;6.68;6.07;;;;;;;12.30;98.25;99494.00;5084099;28;20028;-84
2022/05/03 02:20:36;;;;;;;8.18;6.32;;;;;;;12.14;99.11;99499.16;5091894;28;20043;-83
2022/05/03 02:23:18;;;;;;;7.00;6.30;;;;;;;11.97;99.91;99489.44;5091576;28;20067;-83
2022/05/03 02:26:08;;;;;;;7.30;6.50;;;;;;;11.90;100.00;99491.03;5089121;28;20032;-83
2022/05/03 02:28:43;;;;;;;7.00;6.33;;;;;;;11.81;100.00;99489.31;5087889;28;20028;-84
2022/05/03 02:31:14;;;;;;;8.35;6.70;;;;;;;11.77;100.00;99486.16;5090934;28;20036;-84
2022/05/03 02:33:48;;;;;;;7.60;6.78;;;;;;;11.79;100.00;99494.75;5091248;28;20506;-84
2022/05/03 02:36:22;;;;;;;7.65;6.85;;;;;;;11.81;100.00;99499.91;5091039;28;20028;-84
2022/05/03 02:39:06;;;;;;;6.47;5.97;;;;;;;11.86;100.00;99495.81;5091222;28;20020;-83
2022/05/03 02:41:34;;;;;;;6.82;6.18;;;;;;;11.89;100.00;99494.69;5090877;28;20089;-84
2022/05/03 02:44:02;;;;;;;7.30;6.60;;;;;;;11.85;100.00;99494.16;5090683;28;20032;-83
2022/05/03 02:46:52;;;;;;;7.32;6.72;;;;;;;11.83;100.00;99490.84;5091048;28;20406;-82
2022/05/03 02:49:17;;;;;;;8.02;6.28;;;;;;;11.89;100.00;99495.53;5088704;28;20063;-83
2022/05/03 02:51:58;;;;;;;8.45;6.93;;;;;;;11.85;100.00;99488.84;5090588;28;20111;-83
2022/05/03 02:54:43;;;;;;;6.93;6.28;;;;;;;11.89;100.00;99484.94;5091401;28;20057;-84
2022/05/03 02:57:14;;;;;;;7.78;6.30;;;;;;;11.93;100.00;99487.28;5087577;28;20128;-84
2022/05/03 03:02:36;;;;;;;7.40;6.70;;;;;;;11.96;100.00;99493.06;5087006;28;20053;-83
2022/05/03 03:05:08;;;;;;;7.13;6.50;;;;;;;11.96;100.00;99498.34;5090489;28;20137;-82
2022/05/03 03:07:58;;;;;;;7.03;6.25;;;;;;;11.99;100.00;99494.59;5086813;28;20043;-83
2022/05/03 03:10:33;;;;;;;7.05;6.40;;;;;;;12.00;100.00;99496.25;5077321;28;20190;-83
2022/05/03 03:13:29;;;;;;;7.20;6.57;;;;;;;11.98;100.00;99492.94;5090619;28;20046;-83
2022/05/03 03:15:55;;;;;;;7.75;7.03;;;;;;;12.00;100.00;99491.81;5089541;28;20040;-83
2022/05/03 03:18:24;;;;;;;8.57;6.95;;;;;;;12.03;100.00;99490.66;5072730;28;20033;-84
2022/05/03 03:20:55;;;;;;;6.97;6.38;;;;;;;12.05;100.00;99486.03;5091084;28;20044;-84
2022/05/03 03:23:25;;;;;;;7.18;6.55;;;;;;;12.07;100.00;99492.84;5090724;28;20047;-83
2022/05/03 03:25:51;;;;;;;;;;;;;;;12.06;100.00;99495.66;5090984;28;20032;-82
2022/05/03 03:28:20;;;;;;;7.68;7.00;;;;;;;12.05;100.00;99494.81;5098929;28;19920;-82
2022/05/03 03:30:48;;;;;;;8.52;7.63;;;;;;;11.98;100.00;99498.22;5113216;28;20040;-82
2022/05/03 03:33:16;;;;;;;8.20;7.40;;;;;;;11.86;100.00;99495.81;5092724;28;20386;-83
2022/05/03 03:35:44;;;;;;;8.25;7.55;;;;;;;11.72;100.00;99492.84;5093305;28;20060;-83
2022/05/03 03:38:12;;;;;;;7.97;7.28;;;;;;;11.63;100.00;99502.50;5091768;28;20040;-83
2022/05/03 03:40:38;;;;;;;8.23;7.53;;;;;;;11.65;100.00;99497.06;5091090;28;20020;-83
2022/05/03 03:43:04;;;;;;;7.88;6.93;;;;;;;11.68;100.00;99497.59;5085587;28;20032;-83
2022/05/03 03:45:29;;;;;;;8.32;7.63;;;;;;;11.72;100.00;99501.59;5090742;28;20147;-83
2022/05/03 03:47:56;;;;;;;7.78;6.93;;;;;;;11.66;100.00;99499.59;5072378;28;20032;-84
2022/05/03 03:50:26;;;;;;;7.63;6.90;;;;;;;11.66;100.00;99499.59;5090761;28;20032;-84
2022/05/03 03:52:52;;;;;;;9.25;7.60;;;;;;;11.65;100.00;99503.19;5089754;28;20032;-84
2022/05/03 03:55:19;;;;;;;7.88;7.20;;;;;;;11.67;100.00;99498.56;5090505;28;20444;-83
2022/05/03 03:57:45;;;;;;;7.65;6.95;;;;;;;11.69;100.00;99504.56;5090850;28;20032;-84
2022/05/03 04:00:14;;;;;;;7.93;6.78;;;;;;;11.67;100.00;99506.50;5090591;28;20020;-83
2022/05/03 04:02:41;;;;;;;7.93;7.13;;;;;;;11.65;100.00;99497.91;5090748;28;20476;-83
2022/05/03 04:05:13;;;;;;;8.32;7.63;;;;;;;11.60;100.00;99500.19;5093673;28;20047;-83
2022/05/03 04:07:39;;;;;;;10.20;8.57;;;;;;;11.51;100.00;99495.78;5091379;28;20100;-84
2022/05/03 04:10:05;;;;;;;8.85;8.02;;;;;;;11.50;100.00;99494.94;5094285;28;20100;-82
2022/05/03 04:12:31;;;;;;;12.88;8.15;;;;;;;11.50;100.00;99510.81;5101963;28;20024;-82
2022/05/03 04:14:57;;;;;;;8.55;7.68;;;;;;;11.53;100.00;99512.31;5094617;28;20028;-83
2022/05/03 04:17:22;;;;;;;10.43;7.80;;;;;;;11.56;100.00;99514.66;5094794;28;20036;-83
2022/05/03 04:19:48;;;;;;;8.43;7.70;;;;;;;11.63;100.00;99521.00;5094800;28;20050;-84
2022/05/03 04:22:30;;;;;;;9.55;8.40;;;;;;;11.67;100.00;99521.53;5094389;28;20128;-84
2022/05/03 04:24:57;;;;;;;8.93;8.13;;;;;;;11.60;100.00;99521.31;5094088;28;20092;-84
2022/05/03 04:27:22;;;;;;;9.13;8.40;;;;;;;11.56;100.00;99521.75;5094384;28;20126;-83
2022/05/03 04:29:49;;;;;;;9.30;8.40;;;;;;;11.57;100.00;99526.06;5094338;28;20039;-83
2022/05/03 04:32:15;;;;;;;9.07;8.27;;;;;;;11.61;100.00;99527.41;5093657;28;20051;-84
2022/05/03 04:34:41;;;;;;;8.55;7.72;;;;;;;11.66;100.00;99526.00;5101410;28;20020;-84
2022/05/03 04:37:07;;;;;;;9.00;8.20;;;;;;;11.71;100.00;99522.91;5094637;28;20061;-84
2022/05/03 04:39:32;;;;;;;8.90;8.13;;;;;;;11.74;100.00;99528.75;5094529;28;20035;-84
2022/05/03 04:41:58;;;;;;;9.75;8.50;;;;;;;11.77;100.00;99528.47;5092932;28;20043;-84
2022/05/03 04:44:25;;;;;;;9.77;8.43;;;;;;;11.82;100.00;99531.47;5094218;28;20494;-83
2022/05/03 04:46:51;;;;;;;9.57;8.75;;;;;;;11.89;100.00;99532.53;5094179;28;20036;-83
2022/05/03 04:49:17;;;;;;;9.35;8.45;;;;;;;11.89;100.00;99534.34;5094261;28;20040;-84
2022/05/03 04:51:42;;;;;;;9.23;8.27;;;;;;;11.95;100.00;99543.50;5094018;28;20485;-83
2022/05/03 04:54:09;;;;;;;9.93;8.82;;;;;;;12.01;100.00;99545.53;5093952;28;20490;-84
2022/05/03 04:56:35;;;;;;;9.63;8.82;;;;;;;12.05;100.00;99537.13;5093926;28;20058;-84
2022/05/03 04:59:02;;;;;;;9.90;8.90;;;;;;;12.08;100.00;99536.81;5093821;28;20032;-84
2022/05/03 05:01:28;;;;;;;9.25;8.27;;;;;;;12.16;100.00;99538.69;5094745;28;20032;-84
2022/05/03 05:03:54;;;;;;;9.18;8.48;;;;;;;12.23;100.00;99542.41;5095056;28;20043;-85
2022/05/03 05:06:20;;;;;;;11.82;8.95;;;;;;;12.32;100.00;99544.09;5112907;28;20044;-84
2022/05/03 05:08:46;;;;;;;9.52;8.52;;;;;;;12.43;100.00;99540.41;5098106;28;20028;-84
2022/05/03 05:11:11;;;;;;;11.88;8.43;;;;;;;12.51;100.00;99549.22;5115063;28;20038;-84
2022/05/03 05:13:37;;;;;;;10.20;8.13;;;;;;;12.58;100.00;99544.97;5116434;28;20036;-85
2022/05/03 05:16:04;;;;;;;9.48;8.63;;;;;;;12.70;100.00;99550.84;5114654;28;20028;-86
2022/05/03 05:18:31;;;;;;;10.00;9.00;;;;;;;12.88;100.00;99550.78;5116026;28;20013;-85
2022/05/03 05:20:56;;;;;;;10.10;8.88;;;;;;;13.05;100.00;99547.22;5115545;28;20027;-84
2022/05/03 05:23:23;;;;;;;9.20;8.48;;;;;;;13.18;99.96;99552.94;5097542;28;20396;-84
2022/05/03 05:25:50;;;;;;;9.82;8.90;;;;;;;13.31;99.22;99553.28;5093980;28;20078;-84
2022/05/03 05:28:17;;;;;;;9.63;8.73;;;;;;;13.41;98.77;99554.03;5093420;28;20040;-85
2022/05/03 05:30:43;;;;;;;10.52;9.07;;;;;;;13.48;97.79;99560.34;5094673;28;20032;-85
2022/05/03 05:33:09;;;;;;;11.35;9.25;;;;;;;13.32;98.57;99565.56;5094197;28;20102;-84
2022/05/03 05:35:35;;;;;;;10.18;9.20;;;;;;;13.37;98.43;99573.88;5094716;28;20472;-85
2022/05/03 05:38:02;;;;;;;9.90;9.02;;;;;;;13.41;97.97;99567.28;5095112;28;20103;-85
2022/05/03 05:40:27;;;;;;;11.90;9.45;;;;;;;13.35;97.75;99567.06;5084906;28;20036;-85
2022/05/03 05:42:53;;;;;;;9.90;8.85;;;;;;;13.33;98.10;99577.84;5093950;28;20031;-84
2022/05/03 05:45:18;;;;;;;9.35;8.43;;;;;;;13.24;98.26;99573.50;5094289;28;20143;-84
2022/05/03 05:47:44;;;;;;;9.77;8.80;;;;;;;13.38;97.65;99572.88;5094380;28;20082;-84
2022/05/03 05:50:10;;;;;;;13.85;8.93;;;;;;;13.49;97.58;99577.88;5094988;28;20027;-84
2022/05/03 05:55:20;;;;;;;9.93;9.02;;;;;;;13.71;96.48;99580.94;5092685;28;20054;-85
2022/05/03 05:57:45;;;;;;;9.57;8.80;;;;;;;13.76;96.34;99586.59;5095684;28;20032;-84
2022/05/03 06:00:11;;;;;;;10.30;8.52;;;;;;;13.99;95.49;99582.31;5094455;28;20429;-84
2022/05/03 06:02:38;;;;;;;9.43;8.52;;;;;;;14.17;94.76;99588.31;5096448;28;20442;-83
2022/05/03 06:05:03;;;;;;;11.50;8.82;;;;;;;14.24;94.24;99584.00;5093927;28;20028;-84
2022/05/03 06:07:29;;;;;;;11.05;9.38;;;;;;;14.36;93.45;99587.16;5097639;28;20189;-83
2022/05/03 06:09:55;;;;;;;10.23;9.25;;;;;;;14.42;93.15;99591.00;5096781;28;20040;-84
2022/05/03 06:12:21;;;;;;;10.18;9.07;;;;;;;14.45;93.32;99591.50;5106101;28;20038;-81
2022/05/03 06:14:46;;;;;;;10.70;9.43;;;;;;;14.46;93.68;99581.72;5105710;28;20059;-80
2022/05/03 06:17:12;;;;;;;10.65;9.60;;;;;;;14.51;93.45;99587.34;5105443;28;20036;-81
2022/05/03 06:19:37;;;;;;;10.25;9.20;;;;;;;14.59;93.00;99582.03;5102294;28;20032;-81
2022/05/03 06:22:04;;;;;;;10.90;9.75;;;;;;;14.73;93.24;99590.13;5112111;28;20042;-81
2022/05/03 06:24:29;;;;;;;10.23;9.10;;;;;;;14.85;92.61;99595.94;5110807;28;20042;-81
2022/05/03 06:26:55;;;;;;;10.30;9.27;;;;;;;14.94;92.18;99592.28;5111420;28;20518;-82
2022/05/03 06:29:20;;;;;;;12.60;9.43;;;;;;;15.05;91.89;99589.25;5108861;28;20052;-81
2022/05/03 06:31:46;;;;;;;11.25;9.70;;;;;;;15.13;91.84;99591.91;5111695;28;20050;-80
2022/05/03 06:34:11;;;;;;;10.57;8.88;;;;;;;15.14;91.91;99596.19;5112198;28;20174;-83
2022/05/03 06:36:37;;;;;;;10.50;9.43;;;;;;;15.21;91.33;99598.16;5112077;28;20027;-82
2022/05/03 06:39:05;;;;;;;21.25;10.18;;;;;;;15.14;91.80;99604.16;5102776;28;20024;-84
2022/05/03 06:41:31;;;;;;;13.15;9.70;;;;;;;15.27;91.71;99602.78;5086349;28;20027;-83
2022/05/03 06:43:58;;;;;;;10.98;9.52;;;;;;;15.41;91.16;99599.44;5100028;28;20028;-83
2022/05/03 06:46:27;;;;;;;11.73;9.63;;;;;;;15.58;90.38;99606.38;5107433;28;20036;-84
2022/05/03 06:48:54;;;;;;;9.48;8.55;;;;;;;15.68;90.46;99606.97;5103496;28;20067;-84
2022/05/03 06:51:19;;;;;;;10.57;9.57;;;;;;;15.82;89.41;99614.22;5100391;28;20210;-84
2022/05/03 06:53:47;;;;;;;10.25;9.23;;;;;;;15.92;89.09;99609.50;5090209;28;20032;-83
2022/05/03 06:56:14;;;;;;;10.75;9.15;;;;;;;16.02;88.34;99616.44;5097931;28;20452;-83
2022/05/03 06:58:41;;;;;;;10.60;9.57;;;;;;;16.10;87.87;99611.88;5096970;28;20028;-83
2022/05/03 07:01:11;;;;;;;9.23;8.23;;;;;;;16.10;88.06;99611.88;5097968;28;20062;-83
2022/05/03 07:03:37;;;;;;;11.18;8.90;;;;;;;16.22;88.26;99614.97;5113405;28;20020;-86
2022/05/03 07:06:03;;;;;;;10.40;9.40;;;;;;;16.29;87.79;99608.75;5102755;28;20036;-85
2022/05/03 07:08:30;;;;;;;10.13;9.13;;;;;;;16.52;87.14;99613.22;5091894;28;20040;-85
2022/05/03 07:10:56;;;;;;;9.52;8.52;;;;;;;16.68;86.25;99613.94;5092675;28;20036;-84
2022/05/03 07:13:23;;;;;;;13.93;9.23;;;;;;;16.85;85.54;99613.81;5089155;28;20042;-81
2022/05/03 07:15:56;;;;;;;12.63;9.25;;;;;;;17.01;84.79;99618.97;5090706;28;20020;-81
2022/05/03 07:23:52;;;;;;;14.00;9.60;;;;;;;17.19;83.28;99624.78;5085064;28;20047;-80
2022/05/03 07:26:18;;;;;;;9.77;8.88;;;;;;;17.38;82.73;99613.53;5090988;28;20036;-80
2022/05/03 07:28:48;;;;;;;9.80;8.88;;;;;;;17.55;82.28;99615.00;5091553;28;20032;-84
2022/05/03 07:31:20;;;;;;;9.15;8.25;;;;;;;17.70;82.05;99616.88;5091615;28;20089;-86
2022/05/03 07:33:47;;;;;;;8.77;8.07;;;;;;;17.95;81.06;99616.34;5091871;28;20495;-88
2022/05/03 07:36:12;;;;;;;10.07;8.32;;;;;;;18.03;79.97;99623.41;5091770;28;20393;-88
2022/05/03 07:38:40;;;;;;;9.35;8.55;;;;;;;18.13;79.72;99623.94;5073826;28;20028;-88
2022/05/03 07:41:06;;;;;;;11.13;7.85;;;;;;;18.20;79.69;99616.00;5073603;28;20398;-87
2022/05/03 07:43:32;;;;;;;9.02;8.10;;;;;;;18.34;78.85;99623.94;5083101;28;20164;-85
2022/05/03 07:45:58;;;;;;;7.10;6.50;;;;;;;18.48;77.56;99622.22;5094083;28;20032;-84
2022/05/03 07:48:26;;;;;;;7.47;6.88;;;;;;;18.57;76.04;99634.44;5098847;28;20393;-84
2022/05/03 07:50:52;;;;;;;7.60;6.90;;;;;;;18.50;76.34;99624.69;5097773;28;20032;-87
2022/05/03 07:53:17;;;;;;;7.68;7.05;;;;;;;18.42;76.62;99631.00;5092389;28;20493;-86
2022/05/03 07:55:47;;;;;;;7.20;6.57;;;;;;;18.42;76.68;99629.16;5091771;28;20115;-83
2022/05/03 07:58:13;;;;;;;7.30;6.70;;;;;;;18.24;76.93;99642.13;5092935;28;20035;-87
2022/05/03 08:00:39;;;;;;;7.80;6.20;;;;;;;18.31;76.86;99634.19;5086832;28;20039;-90
2022/05/03 08:03:06;;;;;;;7.45;6.78;;;;;;;18.20;77.39;99643.50;5088729;28;20636;-88
2022/05/03 08:05:32;;;;;;;7.47;6.80;;;;;;;18.30;77.10;99636.03;5091201;28;20035;-86
2022/05/03 08:07:57;;;;;;;7.32;6.28;;;;;;;18.32;75.87;99639.31;5071712;28;20024;-86
2022/05/03 08:10:23;;;;;;;8.57;6.68;;;;;;;18.47;75.17;99649.13;5092101;28;20036;-88
2022/05/03 08:12:51;;;;;;;7.18;6.47;;;;;;;18.70;74.11;99647.13;5090664;28;20097;-87
2022/05/03 08:15:21;;;;;;;9.23;6.07;;;;;;;18.74;74.04;99646.53;5073580;28;20047;-83
2022/05/03 08:17:47;;;;;;;7.30;6.25;;;;;;;18.80;73.51;99644.94;5092876;28;20024;-87
2022/05/03 08:20:13;;;;;;;7.53;6.60;;;;;;;18.83;72.05;99647.22;5091300;28;20378;-88
2022/05/03 08:22:39;;;;;;;7.03;5.70;;;;;;;18.89;71.62;99650.97;5090490;28;20135;-88
2022/05/03 08:25:05;;;;;;;7.25;5.90;;;;;;;18.94;71.35;99654.72;5067888;28;20576;-87
2022/05/03 08:27:31;;;;;;;6.13;5.63;;;;;;;19.11;70.81;99649.91;5092188;28;20028;-87
2022/05/03 08:29:56;;;;;;;6.43;5.85;;;;;;;18.97;71.36;99654.31;5091565;28;20055;-87
2022/05/03 08:32:22;;;;;;;6.47;5.70;;;;;;;18.96;71.11;99658.03;5092132;28;20055;-87
2022/05/03 08:34:47;;;;;;;6.30;5.80;;;;;;;18.85;71.97;99655.88;5092126;28;20373;-88
2022/05/03 08:42:40;;;;;;;6.03;5.55;;;;;;;18.78;72.62;99668.38;5084431;28;20032;-88
2022/05/03 08:45:06;;;;;;;5.82;5.32;;;;;;;18.94;72.23;99668.09;5090617;28;20043;-87
2022/05/03 08:47:32;;;;;;;6.03;5.53;;;;;;;18.95;72.09;99672.41;5091062;28;20028;-87
2022/05/03 08:50:11;;;;;;;6.10;5.55;;;;;;;19.07;71.22;99670.88;5090722;28;20028;-87
2022/05/03 08:52:59;;;;;;;6.60;6.00;;;;;;;19.25;70.95;99661.53;5095136;28;20448;-87
2022/05/03 08:55:25;;;;;;;8.48;6.03;;;;;;;19.12;69.77;99663.09;5094517;28;20028;-87
2022/05/03 08:57:51;;;;;;;5.70;4.90;;;;;;;19.19;69.94;99669.31;5077504;28;20043;-88
2022/05/03 09:00:18;;;;;;;6.03;5.53;;;;;;;19.32;69.67;99662.41;5095068;28;20043;-87
2022/05/03 09:02:46;;;;;;;6.72;6.13;;;;;;;19.44;69.43;99666.19;5098340;28;20467;-86
2022/05/03 09:05:12;;;;;;;6.90;6.13;;;;;;;19.39;69.64;99673.94;5076164;28;20099;-77
2022/05/03 09:07:37;;;;;;;7.47;5.95;;;;;;;19.46;68.68;99677.53;5093745;28;20032;-88
2022/05/03 09:10:15;;;;;;;5.80;5.20;;;;;;;19.56;68.83;99667.28;5093458;28;20044;-87
2022/05/03 09:12:44;;;;;;;5.88;5.38;;;;;;;19.74;68.41;99675.63;5091423;28;20032;-86
2022/05/03 09:15:11;;;;;;;7.32;5.40;;;;;;;19.82;67.94;99670.09;5094989;28;20020;-87
2022/05/03 09:17:42;;;;;;;7.68;6.97;;;;;;;19.86;67.31;99665.16;5095410;28;20028;-87
2022/05/03 09:25:56;;;;;;;6.10;5.50;;;;;;;20.11;65.74;99668.16;5090603;28;20036;-79
2022/05/03 09:28:23;;;;;;;8.15;5.53;;;;;;;20.06;65.55;99666.06;5092189;28;20031;-79
2022/05/03 09:30:52;;;;;;;6.32;5.22;;;;;;;20.22;65.75;99670.22;5091994;28;20024;-80
2022/05/03 09:33:38;;;;;;;5.57;5.10;;;;;;;20.29;64.83;99671.09;5092362;28;20035;-79
2022/05/03 09:36:11;;;;;;;5.82;5.32;;;;;;;20.32;64.76;99668.06;5086251;28;20392;-82
2022/05/03 09:38:50;;;;;;;6.60;5.00;;;;;;;20.37;63.85;99669.09;5092236;28;20101;-79
2022/05/03 09:41:16;;;;;;;6.07;4.28;;;;;;;20.63;63.73;99668.28;5088591;28;20423;-78
2022/05/03 09:44:00;;;;;;;5.32;4.90;;;;;;;20.79;62.40;99664.41;5091951;28;20024;-78
2022/05/03 09:46:26;;;;;;;5.28;4.88;;;;;;;20.82;62.32;99662.13;5092144;28;20036;-79
2022/05/03 09:48:54;;;;;;;7.68;4.70;;;;;;;20.96;62.50;99656.75;5091639;28;20376;-79
2022/05/03 09:51:21;;;;;;;4.78;3.80;;;;;;;21.08;62.16;99660.47;5091735;28;20039;-84
2022/05/03 09:53:57;;;;;;;6.53;4.90;;;;;;;21.02;60.93;99667.50;5093364;28;20028;-84
2022/05/03 09:56:25;;;;;;;4.97;4.57;;;;;;;20.90;60.22;99662.94;5093474;28;20032;-84
2022/05/03 09:58:56;;;;;;;6.15;5.18;;;;;;;20.94;60.40;99653.44;5093262;28;20060;-87
2022/05/03 10:01:23;;;;;;;5.22;3.95;;;;;;;21.19;58.69;99643.75;5073439;28;20468;-85
2022/05/03 10:03:49;;;;;;;4.65;3.83;;;;;;;21.38;56.49;99653.66;5092199;28;20043;-86
2022/05/03 10:06:15;;;;;;;4.82;4.20;;;;;;;21.55;57.04;99641.41;5090946;28;20035;-86
2022/05/03 10:08:41;;;;;;;4.18;3.88;;;;;;;21.77;55.88;99649.16;5093585;28;20069;-87
2022/05/03 10:11:07;;;;;;;4.03;3.53;;;;;;;21.81;55.67;99650.38;5092894;28;20031;-85
2022/05/03 10:13:32;;;;;;;3.70;3.40;;;;;;;21.76;55.46;99653.72;5097663;28;20813;-87
2022/05/03 10:21:34;;;;;;;4.13;3.58;;;;;;;21.70;55.94;99648.38;5115545;28;20016;-86
2022/05/03 10:24:03;;;;;;;4.18;3.25;;;;;;;21.93;54.57;99644.13;5083386;28;20068;-82
2022/05/03 10:26:50;;;;;;;3.70;3.22;;;;;;;21.86;52.12;99647.88;5108453;28;20024;-79
2022/05/03 10:29:15;;;;;;;4.65;3.30;;;;;;;22.12;51.39;99639.72;5101807;28;20040;-87
2022/05/03 10:31:55;;;;;;;3.00;2.80;;;;;;;22.29;50.62;99643.56;5102968;28;20028;-80
2022/05/03 10:34:51;;;;;;;3.60;2.67;;;;;;;22.31;49.96;99641.50;5098061;28;20040;-82
2022/05/03 10:37:18;;;;;;;3.80;3.40;;;;;;;22.28;49.48;99639.22;5105303;28;20027;-82
2022/05/03 10:39:58;;;;;;;3.26;3.01;;;;;;;22.51;47.14;99627.06;4736794;28;10003349;-82
2022/05/03 10:42:31;;;;;;;4.72;2.95;;;;;;;22.56;47.41;99627.25;5091457;28;20145;-83
2022/05/03 10:45:24;;;;;;;3.22;3.03;;;;;;;22.54;46.54;99622.09;5099336;28;20050;-80
2022/05/03 10:47:53;;;;;;;3.75;3.10;;;;;;;22.53;45.09;99622.31;5110073;28;20019;-87
2022/05/03 10:50:43;;;;;;;3.35;3.15;;;;;;;22.68;46.03;99626.31;5115299;28;20077;-87
2022/05/03 10:53:09;;;;;;;3.58;3.28;;;;;;;22.58;47.31;99620.59;5107608;28;20032;-84
2022/05/03 10:56:07;;;;;;;4.00;3.63;;;;;;;22.58;46.09;99619.78;5120026;28;20054;-87
2022/05/03 10:58:35;;;;;;;3.60;3.30;;;;;;;22.65;46.67;99615.19;5097183;28;20140;-87
2022/05/03 11:01:04;;;;;;;4.70;4.30;;;;;;;22.79;46.15;99606.00;5057749;28;20051;-84
2022/05/03 11:03:34;;;;;;;4.65;3.83;;;;;;;22.67;46.39;99602.34;5089457;28;20032;-88
2022/05/03 11:06:25;;;;;;;3.60;3.30;;;;;;;22.64;48.00;99602.78;5091796;28;20432;-85
2022/05/03 11:14:25;;;;;;;3.60;3.30;;;;;;;22.80;49.60;99591.47;5086837;28;20487;-88
2022/05/03 11:17:02;;;;;;;4.35;3.95;;;;;;;22.78;50.59;99593.59;5089382;28;20028;-88
2022/05/03 11:19:55;;;;;;;4.28;3.88;;;;;;;23.09;49.47;99584.59;5089980;28;20081;-86
2022/05/03 11:22:22;;;;;;;5.13;3.83;;;;;;;22.70;50.73;99591.13;5090461;28;20119;-88
2022/05/03 11:24:53;;;;;;;4.00;3.65;;;;;;;22.86;50.37;99579.84;5091907;28;20035;-89
2022/05/03 11:27:22;;;;;;;4.22;3.90;;;;;;;22.73;49.90;99582.66;5071113;28;20032;-89
2022/05/03 11:29:59;;;;;;;3.97;3.35;;;;;;;22.60;50.75;99577.38;4786487;28;10001052;-84
2022/05/03 11:32:38;;;;;;;6.47;3.83;;;;;;;22.58;51.42;99577.56;5096281;28;20349;-85
2022/05/03 11:35:29;;;;;;;5.50;3.90;;;;;;;22.43;50.23;99572.53;5100777;28;20078;-85
2022/05/03 11:37:55;;;;;;;4.38;4.07;;;;;;;22.75;49.16;99564.41;5100537;28;20047;-84
2022/05/03 11:40:24;;;;;;;5.95;3.85;;;;;;;23.03;48.37;99564.75;5073537;28;20033;-88
2022/05/03 11:42:51;;;;;;;4.35;3.50;;;;;;;22.94;48.66;99566.09;5091629;28;20054;-86
2022/05/03 11:45:19;;;;;;;8.27;3.53;;;;;;;23.08;48.28;99562.25;5090242;28;20047;-85
2022/05/03 11:47:47;;;;;;;6.22;3.60;;;;;;;22.91;47.92;99558.50;5090199;28;20055;-86
2022/05/03 11:55:58;;;;;;;3.53;3.00;;;;;;;23.05;48.42;99556.47;5088287;28;20028;-86
2022/05/03 11:56:11;;;;;;;3.97;3.58;;;;;;;23.85;45.25;99536.47;5086200;28;20513;-86
2022/05/03 11:59:02;;;;;;;5.75;3.70;;;;;;;24.08;44.70;99541.09;5090772;28;20089;-86
2022/05/03 12:02:19;;;;;;;6.68;4.00;;;;;;;23.45;44.81;99546.88;5091543;28;20030;-87
2022/05/03 12:05:18;;;;;;;5.63;3.35;;;;;;;23.93;44.23;99544.19;5084176;28;20186;-86
2022/05/03 12:08:19;;;;;;;3.55;3.08;;;;;;;23.86;44.60;99535.38;5087874;28;20039;-85
2022/05/03 12:10:44;;;;;;;5.00;3.38;;;;;;;23.88;44.32;99541.38;5088834;28;20221;-86
2022/05/03 12:13:12;;;;;;;3.35;2.95;;;;;;;24.40;43.18;99538.94;5091517;28;20169;-86
2022/05/03 12:15:39;;;;;;;3.47;3.17;;;;;;;24.72;40.71;99537.56;5073951;28;20117;-87
2022/05/03 12:18:20;;;;;;;4.32;2.70;;;;;;;25.12;39.72;99531.47;5092630;28;20035;-86
2022/05/03 12:20:53;;;;;;;3.78;3.17;;;;;;;25.06;40.22;99543.19;5085026;28;20440;-81
2022/05/03 12:23:20;;;;;;;3.83;3.13;;;;;;;24.30;41.80;99538.69;5089086;28;20047;-82
2022/05/03 12:25:48;;;;;;;3.22;2.92;;;;;;;24.15;42.49;99544.47;5082003;28;20047;-83
2022/05/03 12:28:15;;;;;;;3.50;3.17;;;;;;;24.34;42.52;99540.69;5093950;28;20028;-80